Time;durP1;ratioP1;P1;durP2;ratioP2;P2;SDS_P1;SDS_P2;PMS_P1;PMS_P2;Temp;Humidity;BMP_temperature;BMP_pressure;BME280_temperature;BME280_humidity;BME280_pressure;Samples;Min_cycle;Max_cycle;Signal;HPM_P1;HPM_P2
2021/03/22 00:01:49;;;;;;;254.10;145.93;;;3.10;99.90;;;;;;4994332;28;20033;-73
2021/03/22 00:04:15;;;;;;;317.92;171.77;;;3.00;99.90;;;;;;4996397;28;20088;-72
2021/03/22 00:06:41;;;;;;;179.73;114.13;;;3.00;99.90;;;;;;4994445;28;20527;-72
2021/03/22 00:09:07;;;;;;;224.23;130.10;;;2.90;99.90;;;;;;4994571;28;20023;-68
2021/03/22 00:11:33;;;;;;;314.05;163.50;;;3.00;99.90;;;;;;4994921;28;20031;-72
2021/03/22 00:13:59;;;;;;;245.32;142.40;;;2.90;99.90;;;;;;4995572;28;20049;-73
2021/03/22 00:16:25;;;;;;;182.68;109.88;;;3.00;99.90;;;;;;4994997;28;20034;-72
2021/03/22 00:18:51;;;;;;;330.02;194.40;;;2.90;99.90;;;;;;4993252;28;20030;-73
2021/03/22 00:21:17;;;;;;;232.30;138.13;;;2.90;99.90;;;;;;4994192;28;20477;-73
2021/03/22 00:23:43;;;;;;;410.17;217.25;;;2.90;99.90;;;;;;4994716;28;20534;-70
2021/03/22 00:26:10;;;;;;;235.68;125.75;;;2.90;99.90;;;;;;4994264;28;20102;-72
2021/03/22 00:28:41;;;;;;;345.70;164.15;;;3.00;99.90;;;;;;4994341;28;20026;-73
2021/03/22 00:31:08;;;;;;;269.90;140.60;;;3.00;99.90;;;;;;4994183;28;20030;-73
2021/03/22 00:33:35;;;;;;;220.32;123.38;;;3.10;99.90;;;;;;4994293;28;20022;-73
2021/03/22 00:36:01;;;;;;;230.48;131.35;;;3.00;99.90;;;;;;4994140;28;20029;-71
2021/03/22 00:38:27;;;;;;;247.10;128.32;;;3.00;99.90;;;;;;4992609;28;20022;-72
2021/03/22 00:40:55;;;;;;;172.40;108.55;;;3.00;99.90;;;;;;4994376;28;20101;-67
2021/03/22 00:43:22;;;;;;;283.17;144.05;;;3.00;99.90;;;;;;4997456;28;20089;-73
2021/03/22 00:45:48;;;;;;;238.88;121.18;;;3.00;99.90;;;;;;4997965;28;20081;-73
2021/03/22 00:48:14;;;;;;;322.23;174.82;;;3.00;99.90;;;;;;4997890;28;20411;-68
2021/03/22 00:50:42;;;;;;;193.23;110.40;;;3.00;99.90;;;;;;4997739;28;20437;-68
2021/03/22 00:53:11;;;;;;;175.57;103.13;;;3.10;99.90;;;;;;4997856;28;20034;-73
2021/03/22 00:55:37;;;;;;;525.90;273.00;;;3.10;99.90;;;;;;4997419;28;20481;-72
2021/03/22 00:58:03;;;;;;;244.40;132.63;;;3.10;99.90;;;;;;4996840;28;20062;-71
2021/03/22 01:00:41;;;;;;;184.18;105.05;;;3.10;99.90;;;;;;4998578;28;20022;-68
2021/03/22 01:03:11;;;;;;;184.57;101.78;;;3.10;99.90;;;;;;4998307;28;20026;-68
2021/03/22 01:05:38;;;;;;;396.98;217.52;;;3.10;99.90;;;;;;4998101;28;20034;-72
2021/03/22 01:08:04;;;;;;;157.60;95.18;;;3.20;99.90;;;;;;4997433;28;20081;-71
2021/03/22 01:10:48;;;;;;;194.85;111.28;;;3.20;99.90;;;;;;4997713;28;20466;-71
2021/03/22 01:13:26;;;;;;;306.13;186.40;;;3.20;99.90;;;;;;4998497;28;20030;-69
2021/03/22 01:15:53;;;;;;;132.20;79.93;;;3.20;99.90;;;;;;4997598;28;20038;-72
2021/03/22 01:18:25;;;;;;;122.90;76.20;;;3.20;99.90;;;;;;4996976;28;20460;-69
2021/03/22 01:20:56;;;;;;;203.25;124.65;;;3.20;99.90;;;;;;4997764;28;20380;-72
2021/03/22 01:23:22;;;;;;;176.23;109.30;;;3.20;99.90;;;;;;4997379;28;20362;-73
2021/03/22 01:25:49;;;;;;;235.63;145.85;;;3.10;99.90;;;;;;4998047;28;20026;-73
2021/03/22 01:28:17;;;;;;;86.13;55.22;;;3.20;99.90;;;;;;4998027;28;20037;-73
2021/03/22 01:30:53;;;;;;;81.55;53.28;;;3.10;99.90;;;;;;4997770;28;20026;-69
2021/03/22 01:33:26;;;;;;;68.90;45.45;;;3.10;99.90;;;;;;4997687;28;20478;-73
2021/03/22 01:36:05;;;;;;;90.60;54.40;;;3.10;99.90;;;;;;4998062;28;20030;-73
2021/03/22 01:38:31;;;;;;;60.55;38.20;;;3.10;99.90;;;;;;4997513;28;20022;-71
2021/03/22 01:41:09;;;;;;;56.55;37.95;;;3.10;99.90;;;;;;4998038;28;20030;-73
2021/03/22 01:43:57;;;;;;;61.00;41.28;;;3.10;99.90;;;;;;4996812;28;20033;-73
2021/03/22 01:46:24;;;;;;;66.20;42.47;;;3.10;99.90;;;;;;4997136;28;20058;-71
2021/03/22 01:48:50;;;;;;;54.60;37.10;;;3.10;99.90;;;;;;4997437;28;20022;-72
2021/03/22 01:51:17;;;;;;;66.85;45.63;;;3.10;99.90;;;;;;4996518;28;20057;-73
2021/03/22 01:53:44;;;;;;;58.83;39.33;;;3.00;99.90;;;;;;4995544;28;20026;-71
2021/03/22 01:56:22;;;;;;;156.68;98.78;;;3.00;99.90;;;;;;4997006;28;20025;-69
2021/03/22 01:58:48;;;;;;;73.88;48.83;;;3.00;99.90;;;;;;4996694;28;20029;-68
2021/03/22 02:01:15;;;;;;;76.80;51.63;;;3.00;99.90;;;;;;4996546;28;20019;-71
2021/03/22 02:03:42;;;;;;;78.72;54.20;;;3.00;99.90;;;;;;4998133;28;20022;-73
2021/03/22 02:06:08;;;;;;;58.83;40.97;;;3.00;99.90;;;;;;4996628;28;20050;-72
2021/03/22 02:08:38;;;;;;;43.00;29.35;;;3.00;99.90;;;;;;4997496;28;20053;-72
2021/03/22 02:11:19;;;;;;;84.35;55.92;;;3.00;99.90;;;;;;4997488;28;20411;-68
2021/03/22 02:13:46;;;;;;;81.32;52.65;;;3.10;99.90;;;;;;4997127;28;20057;-71
2021/03/22 02:16:15;;;;;;;126.57;77.97;;;3.00;99.90;;;;;;4995220;28;20084;-74
2021/03/22 02:19:04;;;;;;;97.40;53.60;;;3.00;99.90;;;;;;4995200;28;20026;-72
2021/03/22 02:21:42;;;;;;;118.82;71.75;;;3.00;99.90;;;;;;4996174;28;20089;-73
2021/03/22 02:24:42;;;;;;;91.15;49.65;;;3.00;99.90;;;;;;4996238;28;20030;-69
2021/03/22 02:27:29;;;;;;;97.13;59.33;;;3.00;99.90;;;;;;4997413;28;20561;-73
2021/03/22 02:30:01;;;;;;;98.38;61.25;;;2.90;99.90;;;;;;4996545;28;20130;-71
2021/03/22 02:33:17;;;;;;;54.30;36.67;;;2.90;99.90;;;;;;4996086;28;20433;-73
2021/03/22 02:35:45;;;;;;;;;;;2.90;99.90;;;;;;4996413;28;20022;-72
2021/03/22 02:38:27;;;;;;;133.82;82.50;;;2.90;99.90;;;;;;4996150;28;19905;-73
2021/03/22 02:41:11;;;;;;;160.40;95.05;;;2.90;99.90;;;;;;4998365;28;20022;-73
2021/03/22 02:43:38;;;;;;;161.50;95.55;;;2.90;99.90;;;;;;4996817;28;20461;-73
2021/03/22 02:46:07;;;;;;;210.77;113.57;;;2.90;99.90;;;;;;4997065;28;20026;-73
2021/03/22 02:48:34;;;;;;;55.47;35.35;;;2.90;99.90;;;;;;4996601;28;20027;-71
2021/03/22 02:51:13;;;;;;;45.03;29.38;;;2.90;99.90;;;;;;4995387;28;20057;-73
2021/03/22 02:53:54;;;;;;;302.90;154.98;;;2.90;99.90;;;;;;4997159;28;20022;-72
2021/03/22 02:56:40;;;;;;;133.18;74.45;;;2.80;99.90;;;;;;4996227;28;20026;-71
2021/03/22 02:59:15;;;;;;;289.90;158.95;;;2.80;99.90;;;;;;4997374;28;20026;-73
2021/03/22 03:01:49;;;;;;;42.42;26.58;;;2.80;99.90;;;;;;4996140;28;20453;-67
2021/03/22 03:04:16;;;;;;;99.75;64.25;;;2.70;99.90;;;;;;4995712;28;20485;-71
2021/03/22 03:06:47;;;;;;;37.42;25.83;;;2.80;99.90;;;;;;4995484;28;20057;-71
2021/03/22 03:09:15;;;;;;;41.40;27.38;;;2.80;99.90;;;;;;4995008;28;20076;-71
2021/03/22 03:11:41;;;;;;;39.92;27.08;;;2.70;99.90;;;;;;4994168;28;20018;-68
2021/03/22 03:14:07;;;;;;;39.33;28.05;;;2.80;99.90;;;;;;4996044;28;20026;-73
2021/03/22 03:16:33;;;;;;;34.55;23.23;;;2.80;99.90;;;;;;4995431;28;20029;-73
2021/03/22 03:19:00;;;;;;;27.02;19.83;;;2.70;99.90;;;;;;4995166;28;20022;-73
2021/03/22 03:21:26;;;;;;;36.47;21.90;;;2.70;99.90;;;;;;4995014;28;20080;-68
2021/03/22 03:23:52;;;;;;;32.08;19.67;;;2.70;99.90;;;;;;4995378;28;20136;-71
2021/03/22 03:26:19;;;;;;;31.38;19.17;;;2.60;99.90;;;;;;4995545;28;20022;-73
2021/03/22 03:28:44;;;;;;;32.15;20.00;;;2.60;99.90;;;;;;4995069;28;20034;-73
2021/03/22 03:31:11;;;;;;;31.70;18.85;;;2.60;99.90;;;;;;4995130;28;20552;-73
2021/03/22 03:33:38;;;;;;;30.27;18.45;;;2.50;99.90;;;;;;4994958;28;20486;-73
2021/03/22 03:36:04;;;;;;;31.75;20.23;;;2.50;99.90;;;;;;4994712;28;20080;-71
2021/03/22 03:38:30;;;;;;;30.35;20.70;;;2.50;99.90;;;;;;4994615;28;20125;-72
2021/03/22 03:40:56;;;;;;;34.75;21.35;;;2.60;99.90;;;;;;4994837;28;20105;-73
2021/03/22 03:43:22;;;;;;;38.92;23.58;;;2.50;99.90;;;;;;4994642;28;20030;-72
2021/03/22 03:45:49;;;;;;;36.50;22.40;;;2.60;99.90;;;;;;4994840;28;20369;-73
2021/03/22 03:48:22;;;;;;;30.40;20.35;;;2.50;99.90;;;;;;4994423;28;20101;-70
2021/03/22 03:50:49;;;;;;;29.30;20.20;;;2.50;99.90;;;;;;4994431;28;20050;-72
2021/03/22 03:53:15;;;;;;;25.85;18.10;;;2.50;99.90;;;;;;4994700;28;20026;-71
2021/03/22 03:55:41;;;;;;;28.63;19.70;;;2.40;99.90;;;;;;4996128;28;20022;-73
2021/03/22 03:58:08;;;;;;;30.65;19.95;;;2.30;99.90;;;;;;4994005;28;20043;-73
2021/03/22 04:00:42;;;;;;;27.58;18.70;;;2.20;99.90;;;;;;4994444;28;20483;-73
2021/03/22 04:03:31;;;;;;;28.55;19.27;;;2.30;99.90;;;;;;4994868;28;20042;-70
2021/03/22 04:06:02;;;;;;;33.72;22.45;;;2.10;99.90;;;;;;4995655;28;20110;-73
2021/03/22 04:08:30;;;;;;;31.45;20.63;;;2.10;99.90;;;;;;4994238;28;20066;-73
2021/03/22 04:10:57;;;;;;;26.83;19.20;;;2.20;99.90;;;;;;4994801;28;20106;-72
2021/03/22 04:13:24;;;;;;;23.45;16.63;;;2.30;99.90;;;;;;4994457;28;20165;-73
2021/03/22 04:15:50;;;;;;;29.67;18.60;;;2.20;99.90;;;;;;4994191;28;20350;-72
2021/03/22 04:18:16;;;;;;;29.05;19.80;;;2.20;99.90;;;;;;4997430;28;20026;-67
2021/03/22 04:20:42;;;;;;;36.95;23.40;;;2.10;99.90;;;;;;4997204;28;20045;-73
2021/03/22 04:23:08;;;;;;;32.95;21.45;;;2.20;99.90;;;;;;4999010;28;20031;-70
2021/03/22 04:25:34;;;;;;;42.20;22.48;;;2.20;99.90;;;;;;4998109;28;20084;-72
2021/03/22 04:28:01;;;;;;;54.75;25.92;;;2.00;99.90;;;;;;4998340;28;20074;-73
2021/03/22 04:30:28;;;;;;;39.22;23.15;;;2.10;99.90;;;;;;4998142;28;20073;-71
2021/03/22 04:32:54;;;;;;;42.00;23.27;;;2.10;99.90;;;;;;4998230;28;20044;-73
2021/03/22 04:35:22;;;;;;;38.53;24.35;;;2.10;99.90;;;;;;4998346;28;20026;-73
2021/03/22 04:37:48;;;;;;;43.97;25.95;;;2.20;99.90;;;;;;4997998;28;20037;-73
2021/03/22 04:40:15;;;;;;;41.85;25.80;;;2.10;99.90;;;;;;4997986;28;20026;-67
2021/03/22 04:42:41;;;;;;;44.25;26.52;;;2.20;99.90;;;;;;4996332;28;20033;-73
2021/03/22 04:45:08;;;;;;;41.38;25.63;;;2.10;99.90;;;;;;4998026;28;20484;-73
2021/03/22 04:47:35;;;;;;;47.53;28.15;;;2.00;99.90;;;;;;4998073;28;20030;-68
2021/03/22 04:50:03;;;;;;;50.92;31.20;;;2.00;99.90;;;;;;4998040;28;20026;-73
2021/03/22 04:52:29;;;;;;;54.03;33.20;;;2.10;99.90;;;;;;4997836;28;20073;-73
2021/03/22 04:54:55;;;;;;;50.05;29.60;;;2.00;99.90;;;;;;4997959;28;20023;-68
2021/03/22 04:57:25;;;;;;;42.05;25.52;;;2.00;99.90;;;;;;4996437;28;20026;-69
2021/03/22 04:59:51;;;;;;;34.97;21.98;;;2.10;99.90;;;;;;4997788;28;20030;-72
2021/03/22 05:02:17;;;;;;;46.40;27.38;;;2.20;99.90;;;;;;4997655;28;20026;-70
2021/03/22 05:04:43;;;;;;;37.92;22.10;;;2.20;99.90;;;;;;4998067;28;20057;-71
2021/03/22 05:07:10;;;;;;;26.13;18.13;;;2.20;99.90;;;;;;4998070;28;20535;-72
2021/03/22 05:09:36;;;;;;;23.33;17.13;;;2.10;99.90;;;;;;4998130;28;20018;-68
2021/03/22 05:12:04;;;;;;;30.52;20.75;;;2.10;99.90;;;;;;4997688;28;20030;-72
2021/03/22 05:14:30;;;;;;;28.33;19.40;;;2.00;99.90;;;;;;4997571;28;20018;-73
2021/03/22 05:16:56;;;;;;;58.08;33.08;;;2.10;99.90;;;;;;4997835;28;20022;-73
2021/03/22 05:19:22;;;;;;;41.67;26.77;;;2.10;99.90;;;;;;4996006;28;20117;-71
2021/03/22 05:21:48;;;;;;;95.05;45.33;;;2.10;99.90;;;;;;4997466;28;20113;-73
2021/03/22 05:24:15;;;;;;;74.82;39.72;;;2.00;99.90;;;;;;4997922;28;20380;-73
2021/03/22 05:26:41;;;;;;;51.28;29.25;;;2.00;99.90;;;;;;4998636;28;20030;-72
2021/03/22 05:29:07;;;;;;;43.95;25.02;;;2.10;99.90;;;;;;4997011;28;20073;-73
2021/03/22 05:31:34;;;;;;;32.28;21.05;;;2.10;99.90;;;;;;4997338;28;20110;-71
2021/03/22 05:34:00;;;;;;;33.15;23.83;;;2.20;99.90;;;;;;4997298;28;20492;-70
2021/03/22 05:36:26;;;;;;;34.75;22.85;;;2.20;99.90;;;;;;4996786;28;20026;-68
2021/03/22 05:38:52;;;;;;;44.47;25.00;;;2.30;99.90;;;;;;4996729;28;20022;-73
2021/03/22 05:41:24;;;;;;;50.97;29.95;;;2.30;99.90;;;;;;4997078;28;20019;-72
2021/03/22 05:43:52;;;;;;;48.97;27.33;;;2.20;99.90;;;;;;4995390;28;20052;-67
2021/03/22 05:46:47;;;;;;;41.83;24.38;;;2.30;99.90;;;;;;4996844;28;20022;-73
2021/03/22 05:49:24;;;;;;;59.70;33.63;;;2.20;99.90;;;;;;4995975;28;20066;-69
2021/03/22 05:51:53;;;;;;;56.92;33.40;;;2.30;99.90;;;;;;4996535;28;20035;-73
2021/03/22 05:54:49;;;;;;;72.97;37.28;;;2.20;99.90;;;;;;4996801;28;20030;-71
2021/03/22 05:57:20;;;;;;;67.40;33.97;;;2.20;99.90;;;;;;4997720;28;20019;-72
2021/03/22 06:00:01;;;;;;;55.80;28.30;;;2.30;99.90;;;;;;4996937;28;20495;-73
2021/03/22 06:02:55;;;;;;;62.63;31.60;;;2.20;99.90;;;;;;4996978;28;20137;-74
2021/03/22 06:05:42;;;;;;;53.92;29.10;;;2.20;99.90;;;;;;4997272;28;20035;-70
2021/03/22 06:08:27;;;;;;;64.57;32.00;;;2.40;99.90;;;;;;4997721;28;20457;-72
2021/03/22 06:10:54;;;;;;;81.75;37.60;;;2.30;99.90;;;;;;4996606;28;20022;-68
2021/03/22 06:13:36;;;;;;;101.07;47.00;;;2.30;99.90;;;;;;4996269;28;20436;-74
2021/03/22 06:16:23;;;;;;;54.38;31.98;;;2.30;99.90;;;;;;4996076;28;20022;-71
2021/03/22 06:19:03;;;;;;;53.08;29.50;;;2.50;99.90;;;;;;4996902;28;20102;-75
2021/03/22 06:21:33;;;;;;;52.83;31.20;;;2.60;99.90;;;;;;4996146;28;20077;-69
2021/03/22 06:24:01;;;;;;;42.13;24.30;;;2.60;99.90;;;;;;4996677;28;20026;-74
2021/03/22 06:26:47;;;;;;;41.45;26.27;;;2.60;99.90;;;;;;4996102;28;20041;-74
2021/03/22 06:29:24;;;;;;;;;;;2.60;99.90;;;;;;4996606;28;20031;-75
2021/03/22 06:31:53;;;;;;;75.22;46.17;;;2.70;99.90;;;;;;4994914;28;20316;-75
2021/03/22 06:34:28;;;;;;;39.65;24.63;;;2.70;99.90;;;;;;4996347;28;20027;-71
2021/03/22 06:36:54;;;;;;;;;;;2.70;99.90;;;;;;4996885;28;20022;-73
2021/03/22 06:39:20;;;;;;;43.10;27.55;;;2.80;99.90;;;;;;4995506;28;20257;-72
2021/03/22 06:41:53;;;;;;;37.70;24.85;;;2.70;99.90;;;;;;4995796;28;20030;-75
2021/03/22 06:44:18;;;;;;;31.30;19.60;;;2.70;99.90;;;;;;4995781;28;20081;-75
2021/03/22 06:47:01;;;;;;;25.95;18.35;;;2.80;99.90;;;;;;4996327;28;20030;-73
2021/03/22 06:49:34;;;;;;;30.45;21.05;;;2.70;99.90;;;;;;4996846;28;20026;-71
2021/03/22 06:52:08;;;;;;;33.15;22.70;;;2.90;99.90;;;;;;4996278;28;20050;-76
2021/03/22 06:54:43;;;;;;;26.80;18.77;;;2.80;99.90;;;;;;4996112;28;20085;-71
2021/03/22 06:57:33;;;;;;;30.52;20.25;;;2.70;99.90;;;;;;4995986;28;20031;-74
2021/03/22 07:00:25;;;;;;;45.28;29.27;;;2.70;99.90;;;;;;4996907;28;20029;-74
2021/03/22 07:02:58;;;;;;;54.45;33.13;;;2.70;99.90;;;;;;4995965;28;20384;-75
2021/03/22 07:05:24;;;;;;;32.40;23.55;;;2.70;99.90;;;;;;4996426;28;20034;-68
2021/03/22 07:07:58;;;;;;;33.90;22.05;;;2.60;99.90;;;;;;4996274;28;20054;-72
2021/03/22 07:10:31;;;;;;;34.42;23.88;;;2.50;99.90;;;;;;4997114;28;20022;-72
2021/03/22 07:13:04;;;;;;;40.75;24.90;;;2.50;99.90;;;;;;4996935;28;20026;-69
2021/03/22 07:15:36;;;;;;;74.68;30.67;;;2.30;99.90;;;;;;4996573;28;20038;-77
2021/03/22 07:18:31;;;;;;;61.17;34.90;;;2.30;99.90;;;;;;4996273;28;20109;-70
2021/03/22 07:20:57;;;;;;;58.35;32.15;;;2.20;99.90;;;;;;4994832;28;20419;-72
2021/03/22 07:23:30;;;;;;;43.72;29.05;;;2.40;99.90;;;;;;4983661;28;20026;-75
2021/03/22 07:26:25;;;;;;;56.03;35.15;;;2.30;99.90;;;;;;4983160;28;20023;-71
2021/03/22 07:29:35;;;;;;;71.57;41.95;;;2.40;99.90;;;;;;4981096;28;20484;-68
2021/03/22 07:32:15;;;;;;;95.78;62.35;;;2.30;99.90;;;;;;4985771;28;20027;-68
2021/03/22 07:34:54;;;;;;;166.32;98.57;;;2.20;99.90;;;;;;4979851;28;20469;-70
2021/03/22 07:37:40;;;;;;;98.53;66.10;;;2.20;99.90;;;;;;4978652;28;20122;-70
2021/03/22 07:40:40;;;;;;;92.50;61.85;;;2.30;99.90;;;;;;4980372;28;20019;-70
2021/03/22 07:43:39;;;;;;;130.68;76.25;;;2.20;99.90;;;;;;4982413;28;20034;-75
2021/03/22 07:46:42;;;;;;;223.15;123.70;;;2.30;99.90;;;;;;4984943;28;20030;-68
2021/03/22 07:49:21;;;;;;;200.23;126.07;;;2.40;99.90;;;;;;4985462;28;20045;-72
2021/03/22 07:52:11;;;;;;;178.15;113.32;;;2.40;99.90;;;;;;4984607;28;20055;-70
2021/03/22 07:54:48;;;;;;;234.30;124.75;;;2.50;99.90;;;;;;4985562;28;20026;-69
2021/03/22 07:57:39;;;;;;;311.17;164.20;;;2.50;99.90;;;;;;4977672;28;20444;-72
2021/03/22 08:00:15;;;;;;;229.75;107.07;;;2.40;99.90;;;;;;4978713;28;20027;-76
2021/03/22 08:02:57;;;;;;;322.23;141.27;;;2.50;99.90;;;;;;4999930;28;20042;-71
2021/03/22 08:06:07;;;;;;;109.28;64.80;;;2.40;99.90;;;;;;4993450;28;20034;-73
2021/03/22 08:08:59;;;;;;;269.25;111.75;;;2.30;99.90;;;;;;4980779;28;20065;-69
2021/03/22 08:11:39;;;;;;;231.90;100.18;;;2.30;99.90;;;;;;4973681;28;20047;-70
2021/03/22 08:14:10;;;;;;;235.88;99.63;;;2.40;99.90;;;;;;4978707;28;20488;-68
2021/03/22 08:16:45;;;;;;;258.48;102.18;;;2.50;99.90;;;;;;4984823;28;20045;-70
2021/03/22 08:19:34;;;;;;;128.18;61.97;;;2.50;99.90;;;;;;4984522;28;20023;-68
2021/03/22 08:22:27;;;;;;;248.07;91.25;;;2.60;99.90;;;;;;4985518;28;20034;-68
2021/03/22 08:25:08;;;;;;;161.85;70.35;;;2.60;99.90;;;;;;4978531;28;20035;-75
2021/03/22 08:27:41;;;;;;;150.40;73.78;;;2.70;99.90;;;;;;4976056;28;20027;-68
2021/03/22 08:30:44;;;;;;;376.80;152.25;;;2.70;99.90;;;;;;4975445;28;20027;-74
2021/03/22 08:33:29;;;;;;;154.85;70.13;;;2.70;99.90;;;;;;4975057;28;20027;-70
2021/03/22 08:36:15;;;;;;;;;;;2.70;99.90;;;;;;4976337;28;20097;-71
2021/03/22 08:38:53;;;;;;;119.57;58.10;;;2.60;99.90;;;;;;4975000;28;20456;-70
2021/03/22 08:41:33;;;;;;;133.55;68.30;;;2.80;99.90;;;;;;4974565;28;20114;-75
2021/03/22 08:44:20;;;;;;;142.02;76.68;;;2.80;99.90;;;;;;4975709;28;20039;-78
2021/03/22 08:47:03;;;;;;;95.82;54.45;;;2.90;99.90;;;;;;4975894;28;20027;-68
2021/03/22 08:49:52;;;;;;;117.90;69.70;;;2.90;99.90;;;;;;4979196;28;20050;-79
2021/03/22 08:52:31;;;;;;;97.80;59.00;;;2.80;99.90;;;;;;4985964;28;20489;-70
2021/03/22 08:55:22;;;;;;;99.65;60.75;;;2.80;99.90;;;;;;4992267;28;20409;-67
2021/03/22 08:58:21;;;;;;;81.28;48.13;;;2.70;99.90;;;;;;4989600;28;20484;-66
2021/03/22 09:00:49;;;;;;;69.82;43.55;;;2.60;99.90;;;;;;4992114;28;20031;-73
2021/03/22 09:03:15;;;;;;;68.45;44.03;;;2.60;99.90;;;;;;4993194;28;20034;-68
2021/03/22 09:06:00;;;;;;;70.13;44.97;;;2.50;99.90;;;;;;4996573;28;20354;-68
2021/03/22 09:08:26;;;;;;;67.18;41.85;;;2.50;99.90;;;;;;4995557;28;20062;-66
2021/03/22 09:10:53;;;;;;;71.63;44.08;;;2.60;99.90;;;;;;4997009;28;20416;-68
2021/03/22 09:13:28;;;;;;;76.93;45.40;;;2.40;99.90;;;;;;4997247;28;20022;-70
2021/03/22 09:16:22;;;;;;;73.80;42.72;;;2.60;99.90;;;;;;4993536;28;20384;-69
2021/03/22 09:19:10;;;;;;;81.18;50.15;;;2.50;99.90;;;;;;4972239;28;20042;-66
2021/03/22 09:21:42;;;;;;;71.18;42.65;;;2.60;99.90;;;;;;4980489;28;20022;-66
2021/03/22 09:24:42;;;;;;;86.68;51.95;;;2.60;99.90;;;;;;4979138;28;20034;-69
2021/03/22 09:27:19;;;;;;;104.18;60.42;;;2.50;99.90;;;;;;4978590;28;20433;-73
2021/03/22 09:29:46;;;;;;;90.85;57.80;;;2.70;99.90;;;;;;4979964;28;20027;-73
2021/03/22 09:32:35;;;;;;;120.00;68.70;;;2.80;99.90;;;;;;4979901;28;20034;-70
2021/03/22 09:35:13;;;;;;;133.10;76.50;;;2.80;99.90;;;;;;4973986;28;20041;-69
2021/03/22 09:37:42;;;;;;;189.40;107.95;;;2.70;99.90;;;;;;4979988;28;20031;-74
2021/03/22 09:40:23;;;;;;;125.35;67.65;;;2.80;99.90;;;;;;4995037;28;20038;-65
2021/03/22 09:43:11;;;;;;;318.98;130.38;;;2.70;99.90;;;;;;5000963;28;20602;-72
2021/03/22 09:45:55;;;;;;;368.23;194.55;;;2.70;99.90;;;;;;4999507;28;20081;-69
2021/03/22 09:48:31;;;;;;;318.85;214.65;;;2.80;99.90;;;;;;4996876;28;20057;-77
2021/03/22 09:51:03;;;;;;;249.95;127.90;;;2.60;99.90;;;;;;4996748;28;20034;-81
2021/03/22 09:53:50;;;;;;;95.22;54.08;;;2.60;99.90;;;;;;4997071;28;20465;-70
2021/03/22 09:56:24;;;;;;;63.83;41.58;;;2.60;99.90;;;;;;4977721;28;20030;-70
2021/03/22 09:58:51;;;;;;;54.58;37.53;;;2.70;99.90;;;;;;4977614;28;20469;-74
2021/03/22 10:01:30;;;;;;;72.57;49.92;;;2.70;99.90;;;;;;4977055;28;20027;-76
2021/03/22 10:04:21;;;;;;;62.65;41.40;;;2.80;99.90;;;;;;4977024;28;20035;-76
2021/03/22 10:06:59;;;;;;;69.30;49.38;;;2.80;99.90;;;;;;4977367;28;20038;-82
2021/03/22 10:09:42;;;;;;;78.50;49.83;;;2.70;99.90;;;;;;4977071;28;20023;-76
2021/03/22 10:25:41;;;;;;;105.05;59.72;;;2.90;99.90;;;;;;5306652;23;20050;-73
2021/03/22 10:28:18;;;;;;;99.60;58.35;;;2.80;99.90;;;;;;4996275;28;20030;-71
2021/03/22 10:30:53;;;;;;;92.25;53.08;;;2.90;99.90;;;;;;4994778;28;20030;-72
2021/03/22 10:33:20;;;;;;;86.90;52.30;;;3.00;99.90;;;;;;4994492;28;20022;-72
2021/03/22 10:35:48;;;;;;;99.18;58.65;;;3.00;99.90;;;;;;4995724;28;20109;-73
2021/03/22 10:38:19;;;;;;;80.15;50.47;;;2.90;99.90;;;;;;4995967;28;20476;-75
2021/03/22 10:40:45;;;;;;;76.30;48.33;;;3.00;99.90;;;;;;4995997;28;20116;-73
2021/03/22 10:43:32;;;;;;;74.20;47.13;;;3.00;99.90;;;;;;4994943;28;20033;-73
2021/03/22 10:46:19;;;;;;;104.18;68.40;;;3.00;99.90;;;;;;4996623;28;20076;-74
2021/03/22 10:49:07;;;;;;;104.57;63.38;;;3.10;99.90;;;;;;4994881;28;20034;-72
2021/03/22 10:51:40;;;;;;;63.63;41.50;;;3.30;99.90;;;;;;4989259;28;20066;-73
2021/03/22 10:54:13;;;;;;;81.80;46.83;;;3.10;99.90;;;;;;4996483;28;20026;-68
2021/03/22 10:56:45;;;;;;;184.63;90.65;;;3.20;99.90;;;;;;4996131;28;20041;-68
2021/03/22 10:59:19;;;;;;;178.35;86.57;;;3.10;99.90;;;;;;4995748;28;20023;-70
2021/03/22 11:01:45;;;;;;;;;;;3.10;99.90;;;;;;5000718;28;20038;-71
2021/03/22 11:04:21;;;;;;;142.55;72.65;;;3.10;99.90;;;;;;4998694;28;19948;-71
2021/03/22 11:06:49;;;;;;;110.57;62.20;;;3.10;99.90;;;;;;4997894;28;20030;-71
2021/03/22 11:09:20;;;;;;;128.77;66.57;;;3.20;99.90;;;;;;4998770;28;20531;-72
2021/03/22 11:11:47;;;;;;;158.45;80.85;;;3.20;99.90;;;;;;4998367;28;20368;-71
2021/03/22 11:14:17;;;;;;;179.93;84.95;;;3.10;99.90;;;;;;4998883;28;20006;-76
2021/03/22 11:16:43;;;;;;;204.30;96.22;;;3.20;99.90;;;;;;4998102;28;20018;-76
2021/03/22 11:19:26;;;;;;;103.22;53.72;;;3.20;99.90;;;;;;4998888;28;20029;-75
2021/03/22 11:21:54;;;;;;;103.80;65.25;;;3.30;99.90;;;;;;4999857;28;20015;-71
2021/03/22 11:24:41;;;;;;;103.15;61.50;;;3.20;99.90;;;;;;5017115;28;20384;-70
2021/03/22 11:27:10;;;;;;;66.78;43.75;;;3.30;99.90;;;;;;5001050;28;20041;-72
2021/03/22 11:29:53;;;;;;;94.45;53.10;;;3.20;99.90;;;;;;4999407;28;20037;-71
2021/03/22 11:32:22;;;;;;;177.60;95.18;;;3.30;99.90;;;;;;5001506;28;20030;-70
2021/03/22 11:34:49;;;;;;;135.15;76.20;;;3.30;99.90;;;;;;4996750;28;20495;-71
2021/03/22 11:37:30;;;;;;;70.78;42.88;;;3.30;99.90;;;;;;4997936;28;20023;-71
2021/03/22 11:40:18;;;;;;;133.98;74.05;;;3.30;99.90;;;;;;4995905;28;20037;-71
2021/03/22 11:42:55;;;;;;;100.28;54.83;;;3.40;99.90;;;;;;4999401;28;20030;-73
2021/03/22 11:45:40;;;;;;;255.95;140.10;;;3.40;99.90;;;;;;4996621;28;20026;-70
2021/03/22 11:48:26;;;;;;;117.38;63.92;;;3.40;99.90;;;;;;4995917;28;20488;-71
2021/03/22 11:50:59;;;;;;;188.52;86.35;;;3.40;99.90;;;;;;4994171;28;20128;-71
2021/03/22 11:53:25;;;;;;;126.22;66.28;;;3.50;99.90;;;;;;4995198;28;20085;-72
2021/03/22 11:56:17;;;;;;;100.45;51.78;;;3.50;99.90;;;;;;4997454;28;20096;-72
2021/03/22 11:58:43;;;;;;;190.07;93.45;;;3.50;99.90;;;;;;5001948;28;20570;-72
2021/03/22 12:01:18;;;;;;;112.03;57.08;;;3.50;99.90;;;;;;5001906;28;20109;-71
2021/03/22 12:03:44;;;;;;;176.48;83.32;;;3.50;99.90;;;;;;5003701;28;20018;-72
2021/03/22 12:06:13;;;;;;;96.07;50.28;;;3.50;99.90;;;;;;5002206;28;20049;-71
2021/03/22 12:08:45;;;;;;;141.38;71.88;;;3.40;99.90;;;;;;5005583;28;20023;-72
2021/03/22 12:11:26;;;;;;;127.20;63.08;;;3.40;99.90;;;;;;5017633;28;20057;-70
2021/03/22 12:13:55;;;;;;;116.13;61.70;;;3.40;99.90;;;;;;5005337;28;20029;-71
2021/03/22 12:16:36;;;;;;;116.93;64.78;;;3.40;99.90;;;;;;5003978;28;20013;-70
2021/03/22 12:19:29;;;;;;;377.33;229.45;;;3.50;99.90;;;;;;5003542;28;20007;-70
2021/03/22 12:21:56;;;;;;;119.97;76.18;;;3.50;99.90;;;;;;4998262;28;20074;-71
2021/03/22 12:24:22;;;;;;;115.32;77.30;;;3.50;99.90;;;;;;5006140;28;20050;-69
2021/03/22 12:26:48;;;;;;;107.22;70.40;;;3.60;99.90;;;;;;5000474;28;20038;-71
2021/03/22 12:29:14;;;;;;;80.32;48.03;;;3.60;99.90;;;;;;5004432;28;20083;-72
2021/03/22 12:31:46;;;;;;;67.43;42.22;;;3.50;99.90;;;;;;5003738;28;20415;-71
2021/03/22 12:34:18;;;;;;;76.03;46.00;;;3.60;99.90;;;;;;5017516;28;20113;-71
2021/03/22 12:36:45;;;;;;;52.53;35.00;;;3.60;99.90;;;;;;5011765;28;20030;-70
2021/03/22 12:39:43;;;;;;;46.53;34.45;;;3.70;99.90;;;;;;5002108;28;20030;-70
2021/03/22 12:42:14;;;;;;;49.95;35.85;;;3.70;99.90;;;;;;5005193;28;20042;-70
2021/03/22 12:44:41;;;;;;;53.50;36.50;;;3.70;99.90;;;;;;5004824;28;20131;-70
2021/03/22 12:47:07;;;;;;;51.70;37.65;;;3.60;99.90;;;;;;5006881;28;20079;-71
2021/03/22 12:49:33;;;;;;;50.72;35.65;;;3.60;99.90;;;;;;5007522;28;20530;-69
2021/03/22 12:51:59;;;;;;;58.78;40.72;;;3.60;99.90;;;;;;5009498;28;20400;-68
2021/03/22 12:54:25;;;;;;;56.38;37.67;;;3.60;99.90;;;;;;5003671;28;20073;-72
2021/03/22 12:56:52;;;;;;;47.72;33.25;;;3.60;99.90;;;;;;5009715;28;20030;-70
2021/03/22 12:59:57;;;;;;;42.40;31.42;;;3.70;99.90;;;;;;5008901;28;20026;-72
2021/03/22 13:02:26;;;;;;;40.38;28.83;;;3.70;99.90;;;;;;4948734;29;20059;-71
2021/03/22 13:04:52;;;;;;;42.50;30.15;;;3.80;99.90;;;;;;4947908;29;20043;-71
2021/03/22 13:07:18;;;;;;;41.20;29.80;;;3.90;99.90;;;;;;4941050;29;20031;-72
2021/03/22 13:09:45;;;;;;;39.10;27.95;;;3.90;99.90;;;;;;4939314;29;20493;-70
2021/03/22 13:12:22;;;;;;;37.08;28.20;;;3.90;99.90;;;;;;4939630;29;20036;-74
2021/03/22 13:14:49;;;;;;;41.15;31.75;;;4.00;99.90;;;;;;4924039;29;20015;-71
2021/03/22 13:17:15;;;;;;;38.00;28.02;;;4.00;99.90;;;;;;4940817;29;20070;-71
2021/03/22 13:19:43;;;;;;;39.00;29.85;;;4.10;99.90;;;;;;4937968;29;20024;-74
2021/03/22 13:22:11;;;;;;;41.90;30.90;;;4.10;99.90;;;;;;4938946;29;20062;-71